sensor_id;sensor_type;location;lat;lon;timestamp;pressure;altitude;pressure_sealevel;temperature;humidity
56414;BME280;42318;48.452;19.526;2023-03-23T00:07:13;98146.13;;;19.77;48.51
56414;BME280;42318;48.452;19.526;2023-03-23T00:14:51;98152.94;;;19.80;48.53
56414;BME280;42318;48.452;19.526;2023-03-23T00:22:24;98153.94;;;19.63;48.94
56414;BME280;42318;48.452;19.526;2023-03-23T00:29:55;98156.13;;;19.66;48.83
56414;BME280;42318;48.452;19.526;2023-03-23T00:37:27;98158.28;;;19.64;48.81
56414;BME280;42318;48.452;19.526;2023-03-23T00:44:58;98146.38;;;19.70;48.50
56414;BME280;42318;48.452;19.526;2023-03-23T00:52:31;98135.03;;;19.84;48.29
56414;BME280;42318;48.452;19.526;2023-03-23T01:00:03;98129.00;;;19.76;48.66
56414;BME280;42318;48.452;19.526;2023-03-23T01:07:39;98123.00;;;19.69;48.78
56414;BME280;42318;48.452;19.526;2023-03-23T01:15:15;98121.34;;;19.68;48.97
56414;BME280;42318;48.452;19.526;2023-03-23T01:22:46;98117.50;;;19.59;48.93
56414;BME280;42318;48.452;19.526;2023-03-23T01:30:17;98114.16;;;19.52;49.22
56414;BME280;42318;48.452;19.526;2023-03-23T01:37:48;98115.81;;;19.53;49.35
56414;BME280;42318;48.452;19.526;2023-03-23T01:52:52;98115.69;;;19.75;48.27
56414;BME280;42318;48.452;19.526;2023-03-23T02:00:24;98107.75;;;19.68;48.52
56414;BME280;42318;48.452;19.526;2023-03-23T02:07:58;98112.28;;;19.53;48.93
56414;BME280;42318;48.452;19.526;2023-03-23T02:31:47;98115.56;;;19.23;49.60
56414;BME280;42318;48.452;19.526;2023-03-23T02:39:25;98123.66;;;19.18;49.49
56414;BME280;42318;48.452;19.526;2023-03-23T02:46:59;98145.09;;;19.14;49.53
56414;BME280;42318;48.452;19.526;2023-03-23T02:54:31;98149.13;;;19.11;49.67
56414;BME280;42318;48.452;19.526;2023-03-23T03:02:21;98155.09;;;19.08;49.38
56414;BME280;42318;48.452;19.526;2023-03-23T03:17:26;98146.59;;;19.05;49.62
56414;BME280;42318;48.452;19.526;2023-03-23T03:25:00;98140.31;;;18.99;49.72
56414;BME280;42318;48.452;19.526;2023-03-23T03:32:37;98156.59;;;18.99;50.00
56414;BME280;42318;48.452;19.526;2023-03-23T03:40:13;98148.47;;;18.99;49.69
56414;BME280;42318;48.452;19.526;2023-03-23T03:47:45;98146.25;;;18.96;49.82
56414;BME280;42318;48.452;19.526;2023-03-23T03:55:16;98147.06;;;18.97;49.76
56414;BME280;42318;48.452;19.526;2023-03-23T04:02:49;98138.88;;;18.92;49.60
56414;BME280;42318;48.452;19.526;2023-03-23T04:10:25;98137.25;;;18.91;49.52
56414;BME280;42318;48.452;19.526;2023-03-23T04:17:56;98145.66;;;18.89;49.70
56414;BME280;42318;48.452;19.526;2023-03-23T04:25:27;98152.72;;;18.90;49.71
56414;BME280;42318;48.452;19.526;2023-03-23T04:32:58;98147.81;;;18.87;49.50
56414;BME280;42318;48.452;19.526;2023-03-23T04:40:31;98139.97;;;18.91;49.44
56414;BME280;42318;48.452;19.526;2023-03-23T04:48:01;98137.38;;;19.06;49.10
56414;BME280;42318;48.452;19.526;2023-03-23T04:55:36;98138.97;;;19.29;48.77
56414;BME280;42318;48.452;19.526;2023-03-23T05:03:07;98140.38;;;19.36;48.30
56414;BME280;42318;48.452;19.526;2023-03-23T05:10:38;98124.94;;;19.42;48.05
56414;BME280;42318;48.452;19.526;2023-03-23T05:18:09;98142.34;;;19.46;47.97
56414;BME280;42318;48.452;19.526;2023-03-23T05:25:41;98137.69;;;19.41;48.21
56414;BME280;42318;48.452;19.526;2023-03-23T05:33:12;98150.50;;;19.46;48.08
56414;BME280;42318;48.452;19.526;2023-03-23T05:40:43;98146.53;;;19.54;47.97
56414;BME280;42318;48.452;19.526;2023-03-23T05:48:14;98142.41;;;19.51;47.94
56414;BME280;42318;48.452;19.526;2023-03-23T05:55:44;98153.78;;;19.48;48.00
56414;BME280;42318;48.452;19.526;2023-03-23T06:03:15;98157.88;;;19.51;48.11
56414;BME280;42318;48.452;19.526;2023-03-23T06:10:46;98158.91;;;19.44;48.04
56414;BME280;42318;48.452;19.526;2023-03-23T06:18:17;98165.97;;;19.45;48.24
56414;BME280;42318;48.452;19.526;2023-03-23T06:25:48;98157.41;;;19.54;47.96
56414;BME280;42318;48.452;19.526;2023-03-23T06:33:19;98173.94;;;19.52;48.21
56414;BME280;42318;48.452;19.526;2023-03-23T06:40:53;98177.00;;;19.56;47.75
56414;BME280;42318;48.452;19.526;2023-03-23T06:48:25;98153.59;;;19.55;47.89
56414;BME280;42318;48.452;19.526;2023-03-23T06:55:55;98180.69;;;19.50;48.34
56414;BME280;42318;48.452;19.526;2023-03-23T07:03:27;98183.16;;;19.51;48.32
56414;BME280;42318;48.452;19.526;2023-03-23T07:10:58;98185.25;;;19.44;48.55
56414;BME280;42318;48.452;19.526;2023-03-23T07:18:29;98188.78;;;19.44;48.44
56414;BME280;42318;48.452;19.526;2023-03-23T07:26:00;98179.31;;;19.47;48.42
56414;BME280;42318;48.452;19.526;2023-03-23T07:33:31;98195.31;;;19.43;48.53
56414;BME280;42318;48.452;19.526;2023-03-23T07:41:02;98191.50;;;19.44;48.46
56414;BME280;42318;48.452;19.526;2023-03-23T07:48:33;98192.38;;;19.50;48.46
56414;BME280;42318;48.452;19.526;2023-03-23T07:56:04;98187.63;;;19.62;47.90
56414;BME280;42318;48.452;19.526;2023-03-23T08:03:36;98196.84;;;19.56;48.17
56414;BME280;42318;48.452;19.526;2023-03-23T08:11:07;98185.75;;;19.36;48.46
56414;BME280;42318;48.452;19.526;2023-03-23T08:18:38;98188.66;;;19.29;48.73
56414;BME280;42318;48.452;19.526;2023-03-23T08:26:09;98193.81;;;19.26;48.86
56414;BME280;42318;48.452;19.526;2023-03-23T08:33:40;98190.53;;;19.24;48.81
56414;BME280;42318;48.452;19.526;2023-03-23T08:41:12;98182.63;;;19.22;48.73
56414;BME280;42318;48.452;19.526;2023-03-23T08:48:42;98188.16;;;19.32;48.58
56414;BME280;42318;48.452;19.526;2023-03-23T08:56:14;98181.84;;;19.27;48.77
56414;BME280;42318;48.452;19.526;2023-03-23T09:03:45;98178.31;;;19.26;49.24
56414;BME280;42318;48.452;19.526;2023-03-23T09:11:16;98170.44;;;19.25;48.88
56414;BME280;42318;48.452;19.526;2023-03-23T09:18:47;98169.97;;;19.33;48.92
56414;BME280;42318;48.452;19.526;2023-03-23T09:26:18;98180.53;;;19.29;48.81
56414;BME280;42318;48.452;19.526;2023-03-23T09:33:49;98174.31;;;19.34;48.74
56414;BME280;42318;48.452;19.526;2023-03-23T09:50:12;98176.91;;;19.19;49.15
56414;BME280;42318;48.452;19.526;2023-03-23T10:05:53;98172.50;;;19.12;49.13
56414;BME280;42318;48.452;19.526;2023-03-23T10:21:08;98158.09;;;19.12;49.28
56414;BME280;42318;48.452;19.526;2023-03-23T10:29:07;98153.19;;;19.09;49.05
56414;BME280;42318;48.452;19.526;2023-03-23T10:44:28;98135.56;;;19.11;49.21
56414;BME280;42318;48.452;19.526;2023-03-23T11:00:25;98115.47;;;19.12;49.31
56414;BME280;42318;48.452;19.526;2023-03-23T11:08:00;98131.22;;;19.10;49.35
56414;BME280;42318;48.452;19.526;2023-03-23T11:15:34;98116.81;;;19.10;49.41
56414;BME280;42318;48.452;19.526;2023-03-23T11:23:21;98109.47;;;19.10;49.30
56414;BME280;42318;48.452;19.526;2023-03-23T11:30:54;98094.81;;;19.11;49.44
56414;BME280;42318;48.452;19.526;2023-03-23T11:38:26;98079.09;;;19.13;49.40
56414;BME280;42318;48.452;19.526;2023-03-23T11:46:02;98077.75;;;19.16;49.51
56414;BME280;42318;48.452;19.526;2023-03-23T12:09:45;98047.63;;;19.18;49.29
56414;BME280;42318;48.452;19.526;2023-03-23T12:25:02;98041.63;;;19.16;49.28
56414;BME280;42318;48.452;19.526;2023-03-23T12:33:09;98036.47;;;19.14;49.23
56414;BME280;42318;48.452;19.526;2023-03-23T12:48:54;98021.25;;;19.13;49.35
56414;BME280;42318;48.452;19.526;2023-03-23T13:04:03;98004.13;;;19.12;49.19
56414;BME280;42318;48.452;19.526;2023-03-23T13:11:37;97986.19;;;19.11;49.32
56414;BME280;42318;48.452;19.526;2023-03-23T13:26:45;97974.81;;;19.14;49.20
56414;BME280;42318;48.452;19.526;2023-03-23T13:34:22;97967.50;;;19.15;49.36
56414;BME280;42318;48.452;19.526;2023-03-23T13:42:17;97954.16;;;19.13;49.13
56414;BME280;42318;48.452;19.526;2023-03-23T13:50:01;97958.78;;;19.13;49.04
56414;BME280;42318;48.452;19.526;2023-03-23T13:57:34;97953.63;;;19.11;49.25
56414;BME280;42318;48.452;19.526;2023-03-23T14:12:50;97952.81;;;19.11;49.22
56414;BME280;42318;48.452;19.526;2023-03-23T14:20:27;97951.44;;;19.08;49.28
56414;BME280;42318;48.452;19.526;2023-03-23T14:28:00;97959.88;;;19.12;49.11
56414;BME280;42318;48.452;19.526;2023-03-23T14:35:34;97946.56;;;19.10;49.21
56414;BME280;42318;48.452;19.526;2023-03-23T14:43:06;97950.84;;;19.06;49.10
56414;BME280;42318;48.452;19.526;2023-03-23T14:58:35;97959.06;;;19.11;49.27
56414;BME280;42318;48.452;19.526;2023-03-23T15:06:14;97949.00;;;19.12;49.25
56414;BME280;42318;48.452;19.526;2023-03-23T15:13:51;97950.63;;;19.13;49.12
56414;BME280;42318;48.452;19.526;2023-03-23T15:21:36;97954.16;;;19.13;49.16
56414;BME280;42318;48.452;19.526;2023-03-23T15:29:21;97949.59;;;19.19;49.09
56414;BME280;42318;48.452;19.526;2023-03-23T15:36:56;97941.69;;;19.18;49.25
56414;BME280;42318;48.452;19.526;2023-03-23T15:44:30;97947.69;;;19.20;49.19
56414;BME280;42318;48.452;19.526;2023-03-23T15:52:01;97937.91;;;19.19;49.07
56414;BME280;42318;48.452;19.526;2023-03-23T15:59:33;97940.88;;;19.17;49.42
56414;BME280;42318;48.452;19.526;2023-03-23T16:07:03;97944.72;;;19.21;49.21
56414;BME280;42318;48.452;19.526;2023-03-23T16:14:36;97951.50;;;19.24;49.14
56414;BME280;42318;48.452;19.526;2023-03-23T16:22:08;97967.28;;;19.27;48.93
56414;BME280;42318;48.452;19.526;2023-03-23T16:29:39;97961.59;;;19.28;48.87
56414;BME280;42318;48.452;19.526;2023-03-23T16:37:10;97970.03;;;19.32;49.03
56414;BME280;42318;48.452;19.526;2023-03-23T16:44:41;97973.84;;;19.36;49.07
56414;BME280;42318;48.452;19.526;2023-03-23T16:52:12;97965.69;;;19.36;48.91
56414;BME280;42318;48.452;19.526;2023-03-23T16:59:43;97976.06;;;19.44;48.89
56414;BME280;42318;48.452;19.526;2023-03-23T17:07:14;97970.63;;;19.49;48.78
56414;BME280;42318;48.452;19.526;2023-03-23T17:14:44;97977.69;;;19.45;48.96
56414;BME280;42318;48.452;19.526;2023-03-23T17:22:16;97980.91;;;19.37;48.93
56414;BME280;42318;48.452;19.526;2023-03-23T17:29:47;97986.88;;;19.34;48.99
56414;BME280;42318;48.452;19.526;2023-03-23T17:37:21;97984.69;;;19.31;49.03
56414;BME280;42318;48.452;19.526;2023-03-23T17:44:52;97981.94;;;19.26;48.95
56414;BME280;42318;48.452;19.526;2023-03-23T17:52:23;97991.75;;;19.32;49.18
56414;BME280;42318;48.452;19.526;2023-03-23T17:59:54;97990.38;;;19.29;48.90
56414;BME280;42318;48.452;19.526;2023-03-23T18:07:25;97995.53;;;19.31;49.03
56414;BME280;42318;48.452;19.526;2023-03-23T18:14:57;98009.41;;;19.34;49.16
56414;BME280;42318;48.452;19.526;2023-03-23T18:22:28;98020.34;;;19.44;49.28
56414;BME280;42318;48.452;19.526;2023-03-23T18:29:59;98020.63;;;19.48;48.85
56414;BME280;42318;48.452;19.526;2023-03-23T18:37:30;98021.19;;;19.50;48.85
56414;BME280;42318;48.452;19.526;2023-03-23T18:45:00;98026.16;;;19.53;48.54
56414;BME280;42318;48.452;19.526;2023-03-23T18:52:32;98038.41;;;19.56;48.87
56414;BME280;42318;48.452;19.526;2023-03-23T19:00:05;98040.28;;;19.55;48.90
56414;BME280;42318;48.452;19.526;2023-03-23T19:07:36;98033.72;;;19.51;49.34
56414;BME280;42318;48.452;19.526;2023-03-23T19:15:08;98024.44;;;19.47;49.02
56414;BME280;42318;48.452;19.526;2023-03-23T19:22:39;98018.72;;;19.43;49.20
56414;BME280;42318;48.452;19.526;2023-03-23T19:30:10;98023.00;;;19.34;49.24
56414;BME280;42318;48.452;19.526;2023-03-23T19:37:41;98030.09;;;19.40;49.17
56414;BME280;42318;48.452;19.526;2023-03-23T19:45:12;98044.50;;;19.41;49.60
56414;BME280;42318;48.452;19.526;2023-03-23T19:52:43;98037.97;;;19.37;49.88
56414;BME280;42318;48.452;19.526;2023-03-23T20:00:13;98040.13;;;19.35;50.18
56414;BME280;42318;48.452;19.526;2023-03-23T20:07:44;98051.25;;;19.33;50.14
56414;BME280;42318;48.452;19.526;2023-03-23T20:15:15;98046.59;;;19.29;50.50
56414;BME280;42318;48.452;19.526;2023-03-23T20:22:47;98046.59;;;19.29;50.52
56414;BME280;42318;48.452;19.526;2023-03-23T20:30:17;98049.84;;;19.26;50.60
56414;BME280;42318;48.452;19.526;2023-03-23T20:37:48;98061.81;;;19.30;50.25
56414;BME280;42318;48.452;19.526;2023-03-23T20:45:22;98063.13;;;19.22;49.93
56414;BME280;42318;48.452;19.526;2023-03-23T20:52:53;98072.63;;;19.20;50.09
56414;BME280;42318;48.452;19.526;2023-03-23T21:00:24;98069.34;;;19.18;49.83
56414;BME280;42318;48.452;19.526;2023-03-23T21:07:55;98054.66;;;19.13;50.00
56414;BME280;42318;48.452;19.526;2023-03-23T21:15:27;98066.59;;;19.12;49.82
56414;BME280;42318;48.452;19.526;2023-03-23T21:22:59;98067.41;;;19.13;49.97
56414;BME280;42318;48.452;19.526;2023-03-23T21:30:31;98056.81;;;19.11;49.87
56414;BME280;42318;48.452;19.526;2023-03-23T21:38:02;98068.78;;;19.16;49.52
56414;BME280;42318;48.452;19.526;2023-03-23T21:45:34;98076.97;;;19.21;49.49
56414;BME280;42318;48.452;19.526;2023-03-23T21:53:05;98077.25;;;19.24;49.35
56414;BME280;42318;48.452;19.526;2023-03-23T22:00:36;98078.91;;;19.25;49.27
56414;BME280;42318;48.452;19.526;2023-03-23T22:08:07;98068.84;;;19.26;49.58
56414;BME280;42318;48.452;19.526;2023-03-23T22:15:38;98069.13;;;19.24;49.34
56414;BME280;42318;48.452;19.526;2023-03-23T22:23:09;98062.06;;;19.23;49.24
56414;BME280;42318;48.452;19.526;2023-03-23T22:30:40;98066.06;;;19.16;49.46
56414;BME280;42318;48.452;19.526;2023-03-23T22:38:11;98064.44;;;19.14;49.58
56414;BME280;42318;48.452;19.526;2023-03-23T22:45:42;98070.38;;;19.11;49.29
56414;BME280;42318;48.452;19.526;2023-03-23T22:53:14;98062.75;;;19.08;49.74
56414;BME280;42318;48.452;19.526;2023-03-23T23:00:47;98058.91;;;19.04;49.76
56414;BME280;42318;48.452;19.526;2023-03-23T23:08:19;98063.22;;;19.00;49.57
56414;BME280;42318;48.452;19.526;2023-03-23T23:15:52;98063.22;;;19.00;49.77
56414;BME280;42318;48.452;19.526;2023-03-23T23:23:24;98062.38;;;19.00;49.41
56414;BME280;42318;48.452;19.526;2023-03-23T23:30:55;98061.00;;;18.97;49.58
56414;BME280;42318;48.452;19.526;2023-03-23T23:38:26;98063.72;;;18.97;49.78
56414;BME280;42318;48.452;19.526;2023-03-23T23:45:57;98070.25;;;18.96;49.82
56414;BME280;42318;48.452;19.526;2023-03-23T23:53:28;98058.56;;;18.96;49.45
